sensor_id;sensor_type;location;lat;lon;timestamp;P1;durP1;ratioP1;P2;durP2;ratioP2
21837;SDS011;11081;45.946;6.140;2022-08-19T00:01:59;8.15;;;5.60;;
21837;SDS011;11081;45.946;6.140;2022-08-19T00:04:28;6.95;;;4.45;;
21837;SDS011;11081;45.946;6.140;2022-08-19T00:06:58;7.40;;;4.72;;
21837;SDS011;11081;45.946;6.140;2022-08-19T00:09:26;6.55;;;5.38;;
21837;SDS011;11081;45.946;6.140;2022-08-19T00:11:57;6.95;;;4.55;;
21837;SDS011;11081;45.946;6.140;2022-08-19T00:14:26;6.25;;;4.60;;
21837;SDS011;11081;45.946;6.140;2022-08-19T00:16:56;5.70;;;4.95;;
21837;SDS011;11081;45.946;6.140;2022-08-19T00:19:24;6.40;;;5.22;;
21837;SDS011;11081;45.946;6.140;2022-08-19T00:21:52;8.77;;;5.20;;
21837;SDS011;11081;45.946;6.140;2022-08-19T00:24:22;6.18;;;5.07;;
21837;SDS011;11081;45.946;6.140;2022-08-19T00:26:51;8.82;;;5.55;;
21837;SDS011;11081;45.946;6.140;2022-08-19T00:29:21;8.57;;;5.75;;
21837;SDS011;11081;45.946;6.140;2022-08-19T00:31:50;7.45;;;5.30;;
21837;SDS011;11081;45.946;6.140;2022-08-19T00:34:22;7.18;;;5.38;;
21837;SDS011;11081;45.946;6.140;2022-08-19T00:36:53;9.32;;;4.97;;
21837;SDS011;11081;45.946;6.140;2022-08-19T00:39:21;7.18;;;4.60;;
21837;SDS011;11081;45.946;6.140;2022-08-19T00:41:50;9.38;;;4.93;;
21837;SDS011;11081;45.946;6.140;2022-08-19T00:44:20;6.35;;;4.75;;
21837;SDS011;11081;45.946;6.140;2022-08-19T00:46:53;6.35;;;5.00;;
21837;SDS011;11081;45.946;6.140;2022-08-19T00:49:25;6.18;;;4.95;;
21837;SDS011;11081;45.946;6.140;2022-08-19T00:51:58;5.93;;;4.47;;
21837;SDS011;11081;45.946;6.140;2022-08-19T00:54:29;6.45;;;4.68;;
21837;SDS011;11081;45.946;6.140;2022-08-19T00:56:59;5.85;;;4.88;;
21837;SDS011;11081;45.946;6.140;2022-08-19T00:59:31;8.40;;;5.15;;
21837;SDS011;11081;45.946;6.140;2022-08-19T01:02:23;6.15;;;4.55;;
21837;SDS011;11081;45.946;6.140;2022-08-19T01:04:51;9.95;;;5.22;;
21837;SDS011;11081;45.946;6.140;2022-08-19T01:07:19;6.88;;;4.45;;
21837;SDS011;11081;45.946;6.140;2022-08-19T01:09:49;5.75;;;4.53;;
21837;SDS011;11081;45.946;6.140;2022-08-19T01:12:17;4.55;;;4.15;;
21837;SDS011;11081;45.946;6.140;2022-08-19T01:14:47;6.97;;;4.60;;
21837;SDS011;11081;45.946;6.140;2022-08-19T01:17:16;6.05;;;4.57;;
21837;SDS011;11081;45.946;6.140;2022-08-19T01:19:46;5.13;;;4.57;;
21837;SDS011;11081;45.946;6.140;2022-08-19T01:22:16;5.30;;;4.43;;
21837;SDS011;11081;45.946;6.140;2022-08-19T01:24:59;5.43;;;4.07;;
21837;SDS011;11081;45.946;6.140;2022-08-19T01:27:36;5.38;;;3.95;;
21837;SDS011;11081;45.946;6.140;2022-08-19T01:30:11;7.57;;;5.43;;
21837;SDS011;11081;45.946;6.140;2022-08-19T01:32:40;8.55;;;5.25;;
21837;SDS011;11081;45.946;6.140;2022-08-19T01:35:10;5.60;;;4.95;;
21837;SDS011;11081;45.946;6.140;2022-08-19T01:37:46;8.40;;;5.80;;
21837;SDS011;11081;45.946;6.140;2022-08-19T01:40:16;6.35;;;5.55;;
21837;SDS011;11081;45.946;6.140;2022-08-19T01:42:46;7.50;;;5.35;;
21837;SDS011;11081;45.946;6.140;2022-08-19T01:45:15;7.75;;;5.20;;
21837;SDS011;11081;45.946;6.140;2022-08-19T01:47:44;9.07;;;4.93;;
21837;SDS011;11081;45.946;6.140;2022-08-19T01:50:28;6.43;;;4.90;;
21837;SDS011;11081;45.946;6.140;2022-08-19T01:52:58;7.63;;;5.35;;
21837;SDS011;11081;45.946;6.140;2022-08-19T01:55:32;5.25;;;4.32;;
21837;SDS011;11081;45.946;6.140;2022-08-19T01:58:07;8.32;;;4.57;;
21837;SDS011;11081;45.946;6.140;2022-08-19T02:00:38;6.28;;;4.82;;
21837;SDS011;11081;45.946;6.140;2022-08-19T02:03:06;10.50;;;4.40;;
21837;SDS011;11081;45.946;6.140;2022-08-19T02:05:36;8.95;;;5.18;;
21837;SDS011;11081;45.946;6.140;2022-08-19T02:08:06;8.07;;;5.22;;
21837;SDS011;11081;45.946;6.140;2022-08-19T02:10:37;7.85;;;5.40;;
21837;SDS011;11081;45.946;6.140;2022-08-19T02:13:07;7.07;;;5.07;;
21837;SDS011;11081;45.946;6.140;2022-08-19T02:15:36;7.50;;;4.60;;
21837;SDS011;11081;45.946;6.140;2022-08-19T02:18:04;6.80;;;4.47;;
21837;SDS011;11081;45.946;6.140;2022-08-19T02:20:33;10.57;;;5.35;;
21837;SDS011;11081;45.946;6.140;2022-08-19T02:23:02;6.93;;;4.63;;
21837;SDS011;11081;45.946;6.140;2022-08-19T02:25:40;8.75;;;5.20;;
21837;SDS011;11081;45.946;6.140;2022-08-19T02:28:11;7.70;;;5.05;;
21837;SDS011;11081;45.946;6.140;2022-08-19T02:30:44;6.38;;;4.75;;
21837;SDS011;11081;45.946;6.140;2022-08-19T02:33:12;9.35;;;5.43;;
21837;SDS011;11081;45.946;6.140;2022-08-19T02:35:41;8.02;;;4.85;;
21837;SDS011;11081;45.946;6.140;2022-08-19T02:38:10;8.20;;;5.70;;
21837;SDS011;11081;45.946;6.140;2022-08-19T02:40:54;8.55;;;5.28;;
21837;SDS011;11081;45.946;6.140;2022-08-19T02:43:24;8.32;;;5.40;;
21837;SDS011;11081;45.946;6.140;2022-08-19T02:45:53;9.15;;;5.65;;
21837;SDS011;11081;45.946;6.140;2022-08-19T02:48:22;9.15;;;6.18;;
21837;SDS011;11081;45.946;6.140;2022-08-19T02:50:52;11.07;;;5.53;;
21837;SDS011;11081;45.946;6.140;2022-08-19T02:53:22;8.32;;;5.60;;
21837;SDS011;11081;45.946;6.140;2022-08-19T02:55:52;8.18;;;5.03;;
21837;SDS011;11081;45.946;6.140;2022-08-19T02:58:21;9.65;;;6.22;;
21837;SDS011;11081;45.946;6.140;2022-08-19T03:00:52;7.78;;;5.55;;
21837;SDS011;11081;45.946;6.140;2022-08-19T03:03:22;8.57;;;5.85;;
21837;SDS011;11081;45.946;6.140;2022-08-19T03:05:50;8.35;;;5.20;;
21837;SDS011;11081;45.946;6.140;2022-08-19T03:08:22;8.82;;;5.90;;
21837;SDS011;11081;45.946;6.140;2022-08-19T03:10:51;9.38;;;6.15;;
21837;SDS011;11081;45.946;6.140;2022-08-19T03:13:21;6.97;;;5.55;;
21837;SDS011;11081;45.946;6.140;2022-08-19T03:15:50;13.63;;;5.90;;
21837;SDS011;11081;45.946;6.140;2022-08-19T03:18:18;7.10;;;5.45;;
21837;SDS011;11081;45.946;6.140;2022-08-19T03:20:49;10.90;;;6.97;;
21837;SDS011;11081;45.946;6.140;2022-08-19T03:23:21;10.77;;;6.18;;
21837;SDS011;11081;45.946;6.140;2022-08-19T03:25:50;9.73;;;6.55;;
21837;SDS011;11081;45.946;6.140;2022-08-19T03:28:41;9.35;;;6.10;;
21837;SDS011;11081;45.946;6.140;2022-08-19T03:31:24;7.45;;;5.43;;
21837;SDS011;11081;45.946;6.140;2022-08-19T03:34:14;7.43;;;5.47;;
21837;SDS011;11081;45.946;6.140;2022-08-19T03:36:44;7.70;;;5.45;;
21837;SDS011;11081;45.946;6.140;2022-08-19T03:39:12;5.95;;;4.82;;
21837;SDS011;11081;45.946;6.140;2022-08-19T03:41:42;8.30;;;5.82;;
21837;SDS011;11081;45.946;6.140;2022-08-19T03:44:17;8.35;;;5.95;;
21837;SDS011;11081;45.946;6.140;2022-08-19T03:46:50;5.53;;;4.88;;
21837;SDS011;11081;45.946;6.140;2022-08-19T03:49:20;4.82;;;4.18;;
21837;SDS011;11081;45.946;6.140;2022-08-19T03:51:54;8.80;;;5.40;;
21837;SDS011;11081;45.946;6.140;2022-08-19T03:54:24;8.70;;;5.78;;
21837;SDS011;11081;45.946;6.140;2022-08-19T03:56:54;8.18;;;7.38;;
21837;SDS011;11081;45.946;6.140;2022-08-19T03:59:25;8.90;;;7.60;;
21837;SDS011;11081;45.946;6.140;2022-08-19T04:01:57;9.95;;;7.40;;
21837;SDS011;11081;45.946;6.140;2022-08-19T04:04:27;11.70;;;7.63;;
21837;SDS011;11081;45.946;6.140;2022-08-19T04:06:57;12.48;;;8.57;;
21837;SDS011;11081;45.946;6.140;2022-08-19T04:09:25;13.43;;;7.95;;
21837;SDS011;11081;45.946;6.140;2022-08-19T04:11:55;11.52;;;7.45;;
21837;SDS011;11081;45.946;6.140;2022-08-19T04:14:26;13.20;;;7.35;;
21837;SDS011;11081;45.946;6.140;2022-08-19T04:16:57;10.57;;;7.35;;
21837;SDS011;11081;45.946;6.140;2022-08-19T04:19:25;11.10;;;7.38;;
21837;SDS011;11081;45.946;6.140;2022-08-19T04:21:56;12.32;;;7.55;;
21837;SDS011;11081;45.946;6.140;2022-08-19T04:24:25;13.68;;;7.60;;
21837;SDS011;11081;45.946;6.140;2022-08-19T04:26:53;11.10;;;7.43;;
21837;SDS011;11081;45.946;6.140;2022-08-19T04:29:21;9.32;;;6.97;;
21837;SDS011;11081;45.946;6.140;2022-08-19T04:31:55;9.68;;;7.15;;
21837;SDS011;11081;45.946;6.140;2022-08-19T04:34:25;11.65;;;7.40;;
21837;SDS011;11081;45.946;6.140;2022-08-19T04:36:56;12.43;;;7.53;;
21837;SDS011;11081;45.946;6.140;2022-08-19T04:39:26;14.57;;;7.85;;
21837;SDS011;11081;45.946;6.140;2022-08-19T04:42:10;6.97;;;6.20;;
21837;SDS011;11081;45.946;6.140;2022-08-19T04:44:56;9.52;;;6.03;;
21837;SDS011;11081;45.946;6.140;2022-08-19T04:47:26;10.15;;;5.70;;
21837;SDS011;11081;45.946;6.140;2022-08-19T04:50:14;7.30;;;5.00;;
21837;SDS011;11081;45.946;6.140;2022-08-19T04:52:44;8.30;;;5.75;;
21837;SDS011;11081;45.946;6.140;2022-08-19T04:55:12;7.72;;;5.55;;
21837;SDS011;11081;45.946;6.140;2022-08-19T04:57:40;8.32;;;5.78;;
21837;SDS011;11081;45.946;6.140;2022-08-19T05:00:09;8.70;;;6.65;;
21837;SDS011;11081;45.946;6.140;2022-08-19T05:02:39;6.93;;;5.45;;
21837;SDS011;11081;45.946;6.140;2022-08-19T05:05:07;8.88;;;5.88;;
21837;SDS011;11081;45.946;6.140;2022-08-19T05:07:35;6.97;;;4.88;;
21837;SDS011;11081;45.946;6.140;2022-08-19T05:10:04;6.90;;;4.50;;
21837;SDS011;11081;45.946;6.140;2022-08-19T05:12:33;9.82;;;4.38;;
21837;SDS011;11081;45.946;6.140;2022-08-19T05:15:02;9.02;;;5.45;;
21837;SDS011;11081;45.946;6.140;2022-08-19T05:17:32;8.85;;;5.68;;
21837;SDS011;11081;45.946;6.140;2022-08-19T05:20:06;10.90;;;6.32;;
21837;SDS011;11081;45.946;6.140;2022-08-19T05:22:52;8.13;;;6.32;;
21837;SDS011;11081;45.946;6.140;2022-08-19T05:25:21;8.35;;;6.55;;
21837;SDS011;11081;45.946;6.140;2022-08-19T05:27:51;10.57;;;6.45;;
21837;SDS011;11081;45.946;6.140;2022-08-19T05:30:19;9.45;;;5.32;;
21837;SDS011;11081;45.946;6.140;2022-08-19T05:33:07;10.73;;;5.88;;
21837;SDS011;11081;45.946;6.140;2022-08-19T05:35:38;4.45;;;3.15;;
21837;SDS011;11081;45.946;6.140;2022-08-19T05:38:06;12.05;;;3.40;;
21837;SDS011;11081;45.946;6.140;2022-08-19T05:40:35;4.00;;;2.42;;
21837;SDS011;11081;45.946;6.140;2022-08-19T05:43:04;3.42;;;2.53;;
21837;SDS011;11081;45.946;6.140;2022-08-19T05:45:37;5.05;;;2.28;;
21837;SDS011;11081;45.946;6.140;2022-08-19T05:48:06;2.95;;;2.65;;
21837;SDS011;11081;45.946;6.140;2022-08-19T05:50:39;4.00;;;3.03;;
21837;SDS011;11081;45.946;6.140;2022-08-19T05:53:08;9.15;;;2.55;;
21837;SDS011;11081;45.946;6.140;2022-08-19T05:55:36;4.03;;;2.50;;
21837;SDS011;11081;45.946;6.140;2022-08-19T05:58:06;2.45;;;2.05;;
21837;SDS011;11081;45.946;6.140;2022-08-19T06:00:34;7.35;;;2.72;;
21837;SDS011;11081;45.946;6.140;2022-08-19T06:03:03;7.70;;;4.78;;
21837;SDS011;11081;45.946;6.140;2022-08-19T06:05:39;9.82;;;5.68;;
21837;SDS011;11081;45.946;6.140;2022-08-19T06:08:18;10.35;;;5.72;;
21837;SDS011;11081;45.946;6.140;2022-08-19T06:11:13;6.70;;;4.05;;
21837;SDS011;11081;45.946;6.140;2022-08-19T06:13:45;6.07;;;4.25;;
21837;SDS011;11081;45.946;6.140;2022-08-19T06:16:17;5.65;;;4.13;;
21837;SDS011;11081;45.946;6.140;2022-08-19T06:18:49;5.28;;;4.07;;
21837;SDS011;11081;45.946;6.140;2022-08-19T06:21:20;4.80;;;3.53;;
21837;SDS011;11081;45.946;6.140;2022-08-19T06:23:49;6.28;;;3.13;;
21837;SDS011;11081;45.946;6.140;2022-08-19T06:26:19;3.72;;;2.83;;
21837;SDS011;11081;45.946;6.140;2022-08-19T06:28:48;4.93;;;3.22;;
21837;SDS011;11081;45.946;6.140;2022-08-19T06:31:17;3.40;;;2.88;;
21837;SDS011;11081;45.946;6.140;2022-08-19T06:33:47;3.40;;;2.58;;
21837;SDS011;11081;45.946;6.140;2022-08-19T06:36:16;6.60;;;2.70;;
21837;SDS011;11081;45.946;6.140;2022-08-19T06:38:51;6.60;;;2.85;;
21837;SDS011;11081;45.946;6.140;2022-08-19T06:41:20;4.25;;;2.90;;
21837;SDS011;11081;45.946;6.140;2022-08-19T06:43:48;4.38;;;2.55;;
21837;SDS011;11081;45.946;6.140;2022-08-19T06:46:19;4.45;;;2.67;;
21837;SDS011;11081;45.946;6.140;2022-08-19T06:48:48;3.05;;;2.38;;
21837;SDS011;11081;45.946;6.140;2022-08-19T06:51:16;4.32;;;2.47;;
21837;SDS011;11081;45.946;6.140;2022-08-19T06:53:47;4.60;;;2.65;;
21837;SDS011;11081;45.946;6.140;2022-08-19T06:56:19;2.90;;;2.55;;
21837;SDS011;11081;45.946;6.140;2022-08-19T06:58:48;3.35;;;2.22;;
21837;SDS011;11081;45.946;6.140;2022-08-19T07:01:18;3.80;;;2.50;;
21837;SDS011;11081;45.946;6.140;2022-08-19T07:03:47;3.38;;;2.40;;
21837;SDS011;11081;45.946;6.140;2022-08-19T07:06:16;3.33;;;2.47;;
21837;SDS011;11081;45.946;6.140;2022-08-19T07:09:06;5.82;;;2.30;;
21837;SDS011;11081;45.946;6.140;2022-08-19T07:11:41;3.22;;;2.38;;
21837;SDS011;11081;45.946;6.140;2022-08-19T07:14:12;3.75;;;2.80;;
21837;SDS011;11081;45.946;6.140;2022-08-19T07:16:45;4.05;;;2.50;;
21837;SDS011;11081;45.946;6.140;2022-08-19T07:19:15;5.07;;;2.33;;
21837;SDS011;11081;45.946;6.140;2022-08-19T07:21:47;5.75;;;3.72;;
21837;SDS011;11081;45.946;6.140;2022-08-19T07:24:16;5.65;;;3.83;;
21837;SDS011;11081;45.946;6.140;2022-08-19T07:26:46;3.92;;;3.53;;
21837;SDS011;11081;45.946;6.140;2022-08-19T07:29:17;5.18;;;3.60;;
21837;SDS011;11081;45.946;6.140;2022-08-19T07:31:51;4.32;;;3.47;;
21837;SDS011;11081;45.946;6.140;2022-08-19T07:34:25;5.28;;;3.50;;
21837;SDS011;11081;45.946;6.140;2022-08-19T07:36:54;4.25;;;3.40;;
21837;SDS011;11081;45.946;6.140;2022-08-19T07:39:24;6.10;;;3.45;;
21837;SDS011;11081;45.946;6.140;2022-08-19T07:41:57;4.15;;;3.35;;
21837;SDS011;11081;45.946;6.140;2022-08-19T07:44:27;5.22;;;3.20;;
21837;SDS011;11081;45.946;6.140;2022-08-19T07:46:55;5.22;;;3.95;;
21837;SDS011;11081;45.946;6.140;2022-08-19T07:49:26;7.50;;;4.07;;
21837;SDS011;11081;45.946;6.140;2022-08-19T07:51:57;7.38;;;4.53;;
21837;SDS011;11081;45.946;6.140;2022-08-19T07:54:30;9.40;;;4.80;;
21837;SDS011;11081;45.946;6.140;2022-08-19T07:57:02;5.35;;;4.20;;
21837;SDS011;11081;45.946;6.140;2022-08-19T07:59:31;7.35;;;4.35;;
21837;SDS011;11081;45.946;6.140;2022-08-19T08:02:01;5.75;;;4.07;;
21837;SDS011;11081;45.946;6.140;2022-08-19T08:04:29;6.35;;;4.10;;
21837;SDS011;11081;45.946;6.140;2022-08-19T08:07:16;5.25;;;4.07;;
21837;SDS011;11081;45.946;6.140;2022-08-19T08:10:02;5.72;;;4.55;;
21837;SDS011;11081;45.946;6.140;2022-08-19T08:12:40;5.80;;;3.65;;
21837;SDS011;11081;45.946;6.140;2022-08-19T08:15:23;3.83;;;3.17;;
21837;SDS011;11081;45.946;6.140;2022-08-19T08:17:54;6.22;;;3.08;;
21837;SDS011;11081;45.946;6.140;2022-08-19T08:20:24;7.00;;;3.10;;
21837;SDS011;11081;45.946;6.140;2022-08-19T08:22:52;3.00;;;2.70;;
21837;SDS011;11081;45.946;6.140;2022-08-19T08:25:37;6.03;;;2.75;;
21837;SDS011;11081;45.946;6.140;2022-08-19T08:28:06;4.72;;;2.80;;
21837;SDS011;11081;45.946;6.140;2022-08-19T08:30:36;4.38;;;2.83;;
21837;SDS011;11081;45.946;6.140;2022-08-19T08:33:10;4.25;;;2.70;;
21837;SDS011;11081;45.946;6.140;2022-08-19T08:35:39;5.20;;;3.38;;
21837;SDS011;11081;45.946;6.140;2022-08-19T08:38:09;4.32;;;3.15;;
21837;SDS011;11081;45.946;6.140;2022-08-19T08:40:38;3.38;;;2.97;;
21837;SDS011;11081;45.946;6.140;2022-08-19T08:43:14;6.60;;;2.67;;
21837;SDS011;11081;45.946;6.140;2022-08-19T08:45:52;3.42;;;2.90;;
21837;SDS011;11081;45.946;6.140;2022-08-19T08:48:30;4.38;;;3.10;;
21837;SDS011;11081;45.946;6.140;2022-08-19T08:51:07;3.50;;;3.20;;
21837;SDS011;11081;45.946;6.140;2022-08-19T08:53:45;5.15;;;3.08;;
21837;SDS011;11081;45.946;6.140;2022-08-19T08:56:21;3.67;;;3.22;;
21837;SDS011;11081;45.946;6.140;2022-08-19T08:58:54;4.65;;;3.33;;
21837;SDS011;11081;45.946;6.140;2022-08-19T09:01:26;4.90;;;3.45;;
21837;SDS011;11081;45.946;6.140;2022-08-19T09:03:56;3.97;;;3.33;;
21837;SDS011;11081;45.946;6.140;2022-08-19T09:06:31;3.90;;;3.38;;
21837;SDS011;11081;45.946;6.140;2022-08-19T09:09:10;4.53;;;3.65;;
21837;SDS011;11081;45.946;6.140;2022-08-19T09:11:47;4.80;;;4.07;;
21837;SDS011;11081;45.946;6.140;2022-08-19T09:14:32;7.45;;;3.90;;
21837;SDS011;11081;45.946;6.140;2022-08-19T09:17:20;5.22;;;3.90;;
21837;SDS011;11081;45.946;6.140;2022-08-19T09:19:58;5.68;;;4.20;;
21837;SDS011;11081;45.946;6.140;2022-08-19T09:22:34;4.97;;;3.90;;
21837;SDS011;11081;45.946;6.140;2022-08-19T09:25:03;5.13;;;3.83;;
21837;SDS011;11081;45.946;6.140;2022-08-19T09:27:32;4.70;;;3.30;;
21837;SDS011;11081;45.946;6.140;2022-08-19T09:30:12;6.10;;;3.80;;
21837;SDS011;11081;45.946;6.140;2022-08-19T09:32:42;6.53;;;4.65;;
21837;SDS011;11081;45.946;6.140;2022-08-19T09:35:12;4.72;;;4.10;;
21837;SDS011;11081;45.946;6.140;2022-08-19T09:37:41;5.88;;;4.30;;
21837;SDS011;11081;45.946;6.140;2022-08-19T09:40:11;5.32;;;4.40;;
21837;SDS011;11081;45.946;6.140;2022-08-19T09:42:41;5.57;;;4.97;;
21837;SDS011;11081;45.946;6.140;2022-08-19T09:45:17;5.07;;;4.57;;
21837;SDS011;11081;45.946;6.140;2022-08-19T09:47:49;6.25;;;4.97;;
21837;SDS011;11081;45.946;6.140;2022-08-19T09:50:20;11.10;;;4.65;;
21837;SDS011;11081;45.946;6.140;2022-08-19T09:52:49;6.75;;;4.90;;
21837;SDS011;11081;45.946;6.140;2022-08-19T09:55:23;5.28;;;4.40;;
21837;SDS011;11081;45.946;6.140;2022-08-19T09:58:01;5.70;;;4.80;;
21837;SDS011;11081;45.946;6.140;2022-08-19T10:00:30;5.30;;;4.47;;
21837;SDS011;11081;45.946;6.140;2022-08-19T10:02:58;4.55;;;3.83;;
21837;SDS011;11081;45.946;6.140;2022-08-19T10:05:28;5.03;;;3.83;;
21837;SDS011;11081;45.946;6.140;2022-08-19T10:08:14;4.80;;;4.28;;
21837;SDS011;11081;45.946;6.140;2022-08-19T10:10:46;5.93;;;4.80;;
21837;SDS011;11081;45.946;6.140;2022-08-19T10:13:15;4.35;;;3.95;;
21837;SDS011;11081;45.946;6.140;2022-08-19T10:15:49;5.75;;;4.50;;
21837;SDS011;11081;45.946;6.140;2022-08-19T10:18:19;5.32;;;4.70;;
21837;SDS011;11081;45.946;6.140;2022-08-19T10:20:49;6.03;;;4.72;;
21837;SDS011;11081;45.946;6.140;2022-08-19T10:23:19;4.82;;;4.20;;
21837;SDS011;11081;45.946;6.140;2022-08-19T10:25:48;4.57;;;4.18;;
21837;SDS011;11081;45.946;6.140;2022-08-19T10:28:17;4.13;;;3.70;;
21837;SDS011;11081;45.946;6.140;2022-08-19T10:30:45;8.85;;;4.60;;
21837;SDS011;11081;45.946;6.140;2022-08-19T10:33:15;5.40;;;4.65;;
21837;SDS011;11081;45.946;6.140;2022-08-19T10:36:05;4.20;;;3.80;;
21837;SDS011;11081;45.946;6.140;2022-08-19T10:38:36;4.72;;;4.32;;
21837;SDS011;11081;45.946;6.140;2022-08-19T10:41:20;4.90;;;4.25;;
21837;SDS011;11081;45.946;6.140;2022-08-19T10:43:51;5.22;;;3.85;;
21837;SDS011;11081;45.946;6.140;2022-08-19T10:46:21;5.22;;;4.50;;
21837;SDS011;11081;45.946;6.140;2022-08-19T10:48:52;5.72;;;4.78;;
21837;SDS011;11081;45.946;6.140;2022-08-19T10:51:20;6.93;;;4.63;;
21837;SDS011;11081;45.946;6.140;2022-08-19T10:54:15;4.85;;;4.35;;
21837;SDS011;11081;45.946;6.140;2022-08-19T10:56:58;5.38;;;4.32;;
21837;SDS011;11081;45.946;6.140;2022-08-19T10:59:26;5.10;;;4.60;;
21837;SDS011;11081;45.946;6.140;2022-08-19T11:02:01;5.43;;;4.82;;
21837;SDS011;11081;45.946;6.140;2022-08-19T11:04:32;5.65;;;4.25;;
21837;SDS011;11081;45.946;6.140;2022-08-19T11:07:01;6.03;;;4.50;;
21837;SDS011;11081;45.946;6.140;2022-08-19T11:09:29;5.13;;;4.63;;
21837;SDS011;11081;45.946;6.140;2022-08-19T11:11:59;6.25;;;4.60;;
21837;SDS011;11081;45.946;6.140;2022-08-19T11:14:30;5.53;;;4.57;;
21837;SDS011;11081;45.946;6.140;2022-08-19T11:17:00;4.85;;;4.43;;
21837;SDS011;11081;45.946;6.140;2022-08-19T11:19:28;5.10;;;4.38;;
21837;SDS011;11081;45.946;6.140;2022-08-19T11:21:58;6.30;;;4.38;;
21837;SDS011;11081;45.946;6.140;2022-08-19T11:24:29;5.95;;;4.63;;
21837;SDS011;11081;45.946;6.140;2022-08-19T11:27:03;4.95;;;4.43;;
21837;SDS011;11081;45.946;6.140;2022-08-19T11:29:32;5.97;;;4.82;;
21837;SDS011;11081;45.946;6.140;2022-08-19T11:32:02;4.88;;;4.35;;
21837;SDS011;11081;45.946;6.140;2022-08-19T11:34:32;4.97;;;4.28;;
21837;SDS011;11081;45.946;6.140;2022-08-19T11:37:03;4.97;;;4.45;;
21837;SDS011;11081;45.946;6.140;2022-08-19T11:39:32;6.00;;;4.88;;
21837;SDS011;11081;45.946;6.140;2022-08-19T11:42:03;5.20;;;4.70;;
21837;SDS011;11081;45.946;6.140;2022-08-19T11:44:53;6.45;;;4.43;;
21837;SDS011;11081;45.946;6.140;2022-08-19T11:47:21;5.35;;;4.68;;
21837;SDS011;11081;45.946;6.140;2022-08-19T11:49:50;4.40;;;4.00;;
21837;SDS011;11081;45.946;6.140;2022-08-19T11:52:21;5.57;;;4.85;;
21837;SDS011;11081;45.946;6.140;2022-08-19T11:54:49;5.28;;;4.78;;
21837;SDS011;11081;45.946;6.140;2022-08-19T11:57:17;6.10;;;4.80;;
21837;SDS011;11081;45.946;6.140;2022-08-19T11:59:49;6.13;;;4.03;;
21837;SDS011;11081;45.946;6.140;2022-08-19T12:02:18;5.13;;;4.38;;
21837;SDS011;11081;45.946;6.140;2022-08-19T12:04:48;5.97;;;4.90;;
21837;SDS011;11081;45.946;6.140;2022-08-19T12:07:16;8.45;;;5.55;;
21837;SDS011;11081;45.946;6.140;2022-08-19T12:09:45;6.10;;;5.50;;
21837;SDS011;11081;45.946;6.140;2022-08-19T12:12:14;7.47;;;5.20;;
21837;SDS011;11081;45.946;6.140;2022-08-19T12:14:42;6.88;;;5.22;;
21837;SDS011;11081;45.946;6.140;2022-08-19T12:17:11;6.25;;;5.00;;
21837;SDS011;11081;45.946;6.140;2022-08-19T12:19:39;6.95;;;5.68;;
21837;SDS011;11081;45.946;6.140;2022-08-19T12:22:07;6.65;;;5.05;;
21837;SDS011;11081;45.946;6.140;2022-08-19T12:24:35;6.88;;;6.18;;
21837;SDS011;11081;45.946;6.140;2022-08-19T12:27:05;5.82;;;4.93;;
21837;SDS011;11081;45.946;6.140;2022-08-19T12:29:38;7.30;;;5.78;;
21837;SDS011;11081;45.946;6.140;2022-08-19T12:32:07;10.15;;;5.88;;
21837;SDS011;11081;45.946;6.140;2022-08-19T12:34:38;7.95;;;5.75;;
21837;SDS011;11081;45.946;6.140;2022-08-19T12:37:06;9.93;;;6.32;;
21837;SDS011;11081;45.946;6.140;2022-08-19T12:39:35;7.38;;;5.50;;
21837;SDS011;11081;45.946;6.140;2022-08-19T12:42:06;6.78;;;5.93;;
21837;SDS011;11081;45.946;6.140;2022-08-19T12:44:35;7.30;;;6.07;;
21837;SDS011;11081;45.946;6.140;2022-08-19T12:47:07;7.80;;;7.00;;
21837;SDS011;11081;45.946;6.140;2022-08-19T12:49:37;8.27;;;6.88;;
21837;SDS011;11081;45.946;6.140;2022-08-19T12:52:21;8.85;;;6.75;;
21837;SDS011;11081;45.946;6.140;2022-08-19T12:54:50;9.20;;;7.65;;
21837;SDS011;11081;45.946;6.140;2022-08-19T12:57:22;9.43;;;7.72;;
21837;SDS011;11081;45.946;6.140;2022-08-19T12:59:58;8.82;;;7.63;;
21837;SDS011;11081;45.946;6.140;2022-08-19T13:02:30;10.50;;;7.40;;
21837;SDS011;11081;45.946;6.140;2022-08-19T13:05:05;7.50;;;6.70;;
21837;SDS011;11081;45.946;6.140;2022-08-19T13:07:37;7.90;;;6.80;;
21837;SDS011;11081;45.946;6.140;2022-08-19T13:10:06;7.65;;;6.93;;
21837;SDS011;11081;45.946;6.140;2022-08-19T13:12:37;7.80;;;6.95;;
21837;SDS011;11081;45.946;6.140;2022-08-19T13:15:07;10.07;;;7.05;;
21837;SDS011;11081;45.946;6.140;2022-08-19T13:17:37;8.82;;;6.93;;
21837;SDS011;11081;45.946;6.140;2022-08-19T13:20:06;10.55;;;7.15;;
21837;SDS011;11081;45.946;6.140;2022-08-19T13:22:36;8.60;;;6.72;;
21837;SDS011;11081;45.946;6.140;2022-08-19T13:25:05;9.20;;;7.47;;
21837;SDS011;11081;45.946;6.140;2022-08-19T13:27:34;9.32;;;6.40;;
21837;SDS011;11081;45.946;6.140;2022-08-19T13:30:05;9.38;;;7.03;;
21837;SDS011;11081;45.946;6.140;2022-08-19T13:33:08;9.70;;;7.50;;
21837;SDS011;11081;45.946;6.140;2022-08-19T13:35:42;8.70;;;7.43;;
21837;SDS011;11081;45.946;6.140;2022-08-19T13:38:13;11.38;;;7.68;;
21837;SDS011;11081;45.946;6.140;2022-08-19T13:40:41;7.80;;;7.00;;
21837;SDS011;11081;45.946;6.140;2022-08-19T13:43:11;7.80;;;7.00;;
21837;SDS011;11081;45.946;6.140;2022-08-19T13:45:49;9.23;;;7.45;;
21837;SDS011;11081;45.946;6.140;2022-08-19T13:48:19;8.20;;;7.20;;
21837;SDS011;11081;45.946;6.140;2022-08-19T13:50:47;9.50;;;7.60;;
21837;SDS011;11081;45.946;6.140;2022-08-19T13:53:15;9.25;;;7.80;;
21837;SDS011;11081;45.946;6.140;2022-08-19T13:55:43;7.68;;;6.65;;
21837;SDS011;11081;45.946;6.140;2022-08-19T13:58:14;9.43;;;7.20;;
21837;SDS011;11081;45.946;6.140;2022-08-19T14:00:43;7.70;;;6.90;;
21837;SDS011;11081;45.946;6.140;2022-08-19T14:03:13;7.22;;;6.53;;
21837;SDS011;11081;45.946;6.140;2022-08-19T14:05:41;7.97;;;7.18;;
21837;SDS011;11081;45.946;6.140;2022-08-19T14:08:09;11.20;;;7.25;;
21837;SDS011;11081;45.946;6.140;2022-08-19T14:10:40;10.38;;;7.38;;
21837;SDS011;11081;45.946;6.140;2022-08-19T14:13:12;9.63;;;6.65;;
21837;SDS011;11081;45.946;6.140;2022-08-19T14:15:43;10.35;;;8.32;;
21837;SDS011;11081;45.946;6.140;2022-08-19T14:18:12;7.55;;;6.50;;
21837;SDS011;11081;45.946;6.140;2022-08-19T14:20:40;7.93;;;6.65;;
21837;SDS011;11081;45.946;6.140;2022-08-19T14:23:09;9.73;;;7.05;;
21837;SDS011;11081;45.946;6.140;2022-08-19T14:25:38;10.88;;;6.90;;
21837;SDS011;11081;45.946;6.140;2022-08-19T14:28:06;8.80;;;7.10;;
21837;SDS011;11081;45.946;6.140;2022-08-19T14:30:36;8.73;;;6.95;;
21837;SDS011;11081;45.946;6.140;2022-08-19T14:33:05;8.90;;;6.75;;
21837;SDS011;11081;45.946;6.140;2022-08-19T14:35:35;9.43;;;7.22;;
21837;SDS011;11081;45.946;6.140;2022-08-19T14:38:05;9.18;;;7.15;;
21837;SDS011;11081;45.946;6.140;2022-08-19T14:40:34;9.32;;;6.82;;
21837;SDS011;11081;45.946;6.140;2022-08-19T14:43:03;9.07;;;7.78;;
21837;SDS011;11081;45.946;6.140;2022-08-19T14:45:33;7.75;;;6.90;;
21837;SDS011;11081;45.946;6.140;2022-08-19T14:48:07;9.88;;;7.82;;
21837;SDS011;11081;45.946;6.140;2022-08-19T14:50:45;8.23;;;7.05;;
21837;SDS011;11081;45.946;6.140;2022-08-19T14:53:13;8.38;;;7.38;;
21837;SDS011;11081;45.946;6.140;2022-08-19T14:55:44;8.65;;;7.32;;
21837;SDS011;11081;45.946;6.140;2022-08-19T14:58:13;8.52;;;7.43;;
21837;SDS011;11081;45.946;6.140;2022-08-19T15:00:57;8.05;;;7.05;;
21837;SDS011;11081;45.946;6.140;2022-08-19T15:03:26;10.55;;;7.00;;
21837;SDS011;11081;45.946;6.140;2022-08-19T15:05:55;7.50;;;6.70;;
21837;SDS011;11081;45.946;6.140;2022-08-19T15:08:24;7.72;;;6.90;;
21837;SDS011;11081;45.946;6.140;2022-08-19T15:10:53;7.05;;;6.35;;
21837;SDS011;11081;45.946;6.140;2022-08-19T15:13:21;9.25;;;7.03;;